sensor_id;sensor_type;location;lat;lon;timestamp;P1;durP1;ratioP1;P2;durP2;ratioP2
16813;SDS011;8524;57.650;11.926;2023-12-20T00:00:20;12.03;;;3.13;;
16813;SDS011;8524;57.650;11.926;2023-12-20T00:02:47;10.03;;;2.43;;
16813;SDS011;8524;57.650;11.926;2023-12-20T00:05:14;15.43;;;3.47;;
16813;SDS011;8524;57.650;11.926;2023-12-20T00:07:41;14.17;;;3.67;;
16813;SDS011;8524;57.650;11.926;2023-12-20T00:10:08;17.37;;;3.97;;
16813;SDS011;8524;57.650;11.926;2023-12-20T00:12:35;14.77;;;3.50;;
16813;SDS011;8524;57.650;11.926;2023-12-20T00:15:03;11.03;;;3.57;;
16813;SDS011;8524;57.650;11.926;2023-12-20T00:17:31;12.43;;;3.13;;
16813;SDS011;8524;57.650;11.926;2023-12-20T00:19:57;15.93;;;3.50;;
16813;SDS011;8524;57.650;11.926;2023-12-20T00:22:24;11.03;;;3.57;;
16813;SDS011;8524;57.650;11.926;2023-12-20T00:24:51;13.53;;;3.50;;
16813;SDS011;8524;57.650;11.926;2023-12-20T00:27:18;11.13;;;3.17;;
16813;SDS011;8524;57.650;11.926;2023-12-20T00:29:45;13.97;;;4.30;;
16813;SDS011;8524;57.650;11.926;2023-12-20T00:32:16;11.03;;;3.27;;
16813;SDS011;8524;57.650;11.926;2023-12-20T00:34:43;11.97;;;3.03;;
16813;SDS011;8524;57.650;11.926;2023-12-20T00:37:10;9.83;;;3.13;;
16813;SDS011;8524;57.650;11.926;2023-12-20T00:39:37;8.37;;;2.83;;
16813;SDS011;8524;57.650;11.926;2023-12-20T00:42:04;16.27;;;3.50;;
16813;SDS011;8524;57.650;11.926;2023-12-20T00:44:31;14.20;;;3.10;;
16813;SDS011;8524;57.650;11.926;2023-12-20T00:46:57;15.30;;;3.50;;
16813;SDS011;8524;57.650;11.926;2023-12-20T00:49:26;13.47;;;3.17;;
16813;SDS011;8524;57.650;11.926;2023-12-20T00:51:52;10.37;;;4.00;;
16813;SDS011;8524;57.650;11.926;2023-12-20T00:54:19;16.50;;;3.40;;
16813;SDS011;8524;57.650;11.926;2023-12-20T00:56:46;12.83;;;3.53;;
16813;SDS011;8524;57.650;11.926;2023-12-20T00:59:13;13.87;;;3.57;;
16813;SDS011;8524;57.650;11.926;2023-12-20T01:01:41;13.83;;;3.50;;
16813;SDS011;8524;57.650;11.926;2023-12-20T01:04:08;13.23;;;3.63;;
16813;SDS011;8524;57.650;11.926;2023-12-20T01:06:36;12.80;;;3.17;;
16813;SDS011;8524;57.650;11.926;2023-12-20T01:09:03;9.50;;;3.13;;
16813;SDS011;8524;57.650;11.926;2023-12-20T01:11:30;9.63;;;3.07;;
16813;SDS011;8524;57.650;11.926;2023-12-20T01:13:57;11.10;;;2.93;;
16813;SDS011;8524;57.650;11.926;2023-12-20T01:16:24;9.53;;;3.33;;
16813;SDS011;8524;57.650;11.926;2023-12-20T01:18:50;14.13;;;3.10;;
16813;SDS011;8524;57.650;11.926;2023-12-20T01:21:17;11.93;;;3.83;;
16813;SDS011;8524;57.650;11.926;2023-12-20T01:23:45;10.10;;;3.30;;
16813;SDS011;8524;57.650;11.926;2023-12-20T01:26:12;18.60;;;4.03;;
16813;SDS011;8524;57.650;11.926;2023-12-20T01:28:40;18.60;;;4.17;;
16813;SDS011;8524;57.650;11.926;2023-12-20T01:31:08;14.33;;;3.40;;
16813;SDS011;8524;57.650;11.926;2023-12-20T01:33:35;15.00;;;3.40;;
16813;SDS011;8524;57.650;11.926;2023-12-20T01:36:02;15.33;;;3.40;;
16813;SDS011;8524;57.650;11.926;2023-12-20T01:38:29;12.67;;;3.27;;
16813;SDS011;8524;57.650;11.926;2023-12-20T01:40:57;17.23;;;3.70;;
16813;SDS011;8524;57.650;11.926;2023-12-20T01:43:24;13.80;;;3.70;;
16813;SDS011;8524;57.650;11.926;2023-12-20T01:45:51;10.83;;;3.23;;
16813;SDS011;8524;57.650;11.926;2023-12-20T01:48:18;11.90;;;3.37;;
16813;SDS011;8524;57.650;11.926;2023-12-20T01:50:46;15.07;;;3.70;;
16813;SDS011;8524;57.650;11.926;2023-12-20T01:53:14;10.83;;;3.07;;
16813;SDS011;8524;57.650;11.926;2023-12-20T01:55:42;16.47;;;4.00;;
16813;SDS011;8524;57.650;11.926;2023-12-20T01:58:12;11.17;;;3.30;;
16813;SDS011;8524;57.650;11.926;2023-12-20T02:00:39;16.90;;;3.60;;
16813;SDS011;8524;57.650;11.926;2023-12-20T02:03:07;11.33;;;3.00;;
16813;SDS011;8524;57.650;11.926;2023-12-20T02:05:34;8.23;;;3.27;;
16813;SDS011;8524;57.650;11.926;2023-12-20T02:08:02;10.60;;;2.90;;
16813;SDS011;8524;57.650;11.926;2023-12-20T02:10:29;12.53;;;3.30;;
16813;SDS011;8524;57.650;11.926;2023-12-20T02:12:56;16.37;;;3.40;;
16813;SDS011;8524;57.650;11.926;2023-12-20T02:15:25;18.23;;;4.10;;
16813;SDS011;8524;57.650;11.926;2023-12-20T02:17:51;13.00;;;2.90;;
16813;SDS011;8524;57.650;11.926;2023-12-20T02:20:19;16.50;;;3.27;;
16813;SDS011;8524;57.650;11.926;2023-12-20T02:22:47;12.43;;;2.90;;
16813;SDS011;8524;57.650;11.926;2023-12-20T02:25:14;10.83;;;2.87;;
16813;SDS011;8524;57.650;11.926;2023-12-20T02:27:41;12.00;;;3.27;;
16813;SDS011;8524;57.650;11.926;2023-12-20T02:30:09;11.37;;;3.83;;
16813;SDS011;8524;57.650;11.926;2023-12-20T02:32:36;15.23;;;3.30;;
16813;SDS011;8524;57.650;11.926;2023-12-20T02:35:03;9.63;;;3.27;;
16813;SDS011;8524;57.650;11.926;2023-12-20T02:37:31;15.83;;;3.37;;
16813;SDS011;8524;57.650;11.926;2023-12-20T02:40:01;14.20;;;3.90;;
16813;SDS011;8524;57.650;11.926;2023-12-20T02:42:29;11.03;;;3.10;;
16813;SDS011;8524;57.650;11.926;2023-12-20T02:44:56;16.37;;;3.27;;
16813;SDS011;8524;57.650;11.926;2023-12-20T02:47:23;10.83;;;3.60;;
16813;SDS011;8524;57.650;11.926;2023-12-20T02:49:50;10.63;;;2.80;;
16813;SDS011;8524;57.650;11.926;2023-12-20T02:52:17;15.87;;;3.40;;
16813;SDS011;8524;57.650;11.926;2023-12-20T02:54:44;8.67;;;2.83;;
16813;SDS011;8524;57.650;11.926;2023-12-20T02:57:13;11.27;;;3.00;;
16813;SDS011;8524;57.650;11.926;2023-12-20T02:59:39;12.07;;;2.97;;
16813;SDS011;8524;57.650;11.926;2023-12-20T03:02:06;10.73;;;3.10;;
16813;SDS011;8524;57.650;11.926;2023-12-20T03:04:33;12.07;;;3.17;;
16813;SDS011;8524;57.650;11.926;2023-12-20T03:07:00;10.60;;;3.37;;
16813;SDS011;8524;57.650;11.926;2023-12-20T03:09:27;10.03;;;2.80;;
16813;SDS011;8524;57.650;11.926;2023-12-20T03:11:53;11.30;;;2.50;;
16813;SDS011;8524;57.650;11.926;2023-12-20T03:14:22;9.37;;;2.63;;
16813;SDS011;8524;57.650;11.926;2023-12-20T03:16:49;8.97;;;3.30;;
16813;SDS011;8524;57.650;11.926;2023-12-20T03:19:16;9.70;;;2.40;;
16813;SDS011;8524;57.650;11.926;2023-12-20T03:21:43;9.43;;;2.73;;
16813;SDS011;8524;57.650;11.926;2023-12-20T03:24:10;10.32;;;2.90;;
16813;SDS011;8524;57.650;11.926;2023-12-20T03:26:37;9.70;;;3.27;;
16813;SDS011;8524;57.650;11.926;2023-12-20T03:29:04;10.67;;;2.53;;
16813;SDS011;8524;57.650;11.926;2023-12-20T03:31:32;13.37;;;3.13;;
16813;SDS011;8524;57.650;11.926;2023-12-20T03:33:59;8.07;;;2.13;;
16813;SDS011;8524;57.650;11.926;2023-12-20T03:36:26;10.17;;;2.77;;
16813;SDS011;8524;57.650;11.926;2023-12-20T03:38:53;11.37;;;2.30;;
16813;SDS011;8524;57.650;11.926;2023-12-20T03:41:19;11.03;;;2.40;;
16813;SDS011;8524;57.650;11.926;2023-12-20T03:43:46;10.85;;;2.83;;
16813;SDS011;8524;57.650;11.926;2023-12-20T03:46:13;13.13;;;2.90;;
16813;SDS011;8524;57.650;11.926;2023-12-20T03:48:41;10.83;;;2.47;;
16813;SDS011;8524;57.650;11.926;2023-12-20T03:51:08;10.87;;;2.60;;
16813;SDS011;8524;57.650;11.926;2023-12-20T03:53:35;11.33;;;2.30;;
16813;SDS011;8524;57.650;11.926;2023-12-20T03:56:02;9.70;;;1.93;;
16813;SDS011;8524;57.650;11.926;2023-12-20T03:58:29;8.47;;;2.27;;
16813;SDS011;8524;57.650;11.926;2023-12-20T04:00:56;6.57;;;2.33;;
16813;SDS011;8524;57.650;11.926;2023-12-20T04:03:23;7.33;;;2.33;;
16813;SDS011;8524;57.650;11.926;2023-12-20T04:05:51;8.93;;;2.10;;
16813;SDS011;8524;57.650;11.926;2023-12-20T04:08:18;8.20;;;2.13;;
16813;SDS011;8524;57.650;11.926;2023-12-20T04:10:45;4.20;;;1.60;;
16813;SDS011;8524;57.650;11.926;2023-12-20T04:13:12;5.77;;;1.77;;
16813;SDS011;8524;57.650;11.926;2023-12-20T04:15:39;8.90;;;2.03;;
16813;SDS011;8524;57.650;11.926;2023-12-20T04:18:06;10.30;;;2.63;;
16813;SDS011;8524;57.650;11.926;2023-12-20T04:20:33;6.63;;;2.17;;
16813;SDS011;8524;57.650;11.926;2023-12-20T04:23:01;8.90;;;1.93;;
16813;SDS011;8524;57.650;11.926;2023-12-20T04:25:28;6.77;;;2.20;;
16813;SDS011;8524;57.650;11.926;2023-12-20T04:27:54;8.67;;;2.90;;
16813;SDS011;8524;57.650;11.926;2023-12-20T04:30:21;11.53;;;2.43;;
16813;SDS011;8524;57.650;11.926;2023-12-20T04:32:49;9.13;;;2.10;;
16813;SDS011;8524;57.650;11.926;2023-12-20T04:35:15;6.80;;;2.00;;
16813;SDS011;8524;57.650;11.926;2023-12-20T04:37:42;11.00;;;3.03;;
16813;SDS011;8524;57.650;11.926;2023-12-20T04:40:11;8.90;;;2.13;;
16813;SDS011;8524;57.650;11.926;2023-12-20T04:42:38;9.27;;;1.90;;
16813;SDS011;8524;57.650;11.926;2023-12-20T04:45:05;8.30;;;2.20;;
16813;SDS011;8524;57.650;11.926;2023-12-20T04:47:32;8.20;;;2.27;;
16813;SDS011;8524;57.650;11.926;2023-12-20T04:49:59;13.37;;;2.27;;
16813;SDS011;8524;57.650;11.926;2023-12-20T04:52:30;9.60;;;2.93;;
16813;SDS011;8524;57.650;11.926;2023-12-20T04:54:57;8.67;;;2.23;;
16813;SDS011;8524;57.650;11.926;2023-12-20T04:57:25;10.10;;;3.00;;
16813;SDS011;8524;57.650;11.926;2023-12-20T04:59:52;9.30;;;2.30;;
16813;SDS011;8524;57.650;11.926;2023-12-20T05:02:19;10.20;;;3.00;;
16813;SDS011;8524;57.650;11.926;2023-12-20T05:04:46;9.50;;;2.87;;
16813;SDS011;8524;57.650;11.926;2023-12-20T05:07:13;11.33;;;2.80;;
16813;SDS011;8524;57.650;11.926;2023-12-20T05:09:39;12.90;;;2.87;;
16813;SDS011;8524;57.650;11.926;2023-12-20T05:12:07;13.33;;;3.67;;
16813;SDS011;8524;57.650;11.926;2023-12-20T05:14:35;9.60;;;2.83;;
16813;SDS011;8524;57.650;11.926;2023-12-20T05:17:02;9.13;;;2.60;;
16813;SDS011;8524;57.650;11.926;2023-12-20T05:19:29;13.20;;;3.23;;
16813;SDS011;8524;57.650;11.926;2023-12-20T05:21:56;10.32;;;2.88;;
16813;SDS011;8524;57.650;11.926;2023-12-20T05:24:23;11.13;;;2.83;;
16813;SDS011;8524;57.650;11.926;2023-12-20T05:26:49;10.10;;;2.70;;
16813;SDS011;8524;57.650;11.926;2023-12-20T05:29:16;10.73;;;2.67;;
16813;SDS011;8524;57.650;11.926;2023-12-20T05:31:44;7.43;;;2.47;;
16813;SDS011;8524;57.650;11.926;2023-12-20T05:34:11;7.23;;;2.80;;
16813;SDS011;8524;57.650;11.926;2023-12-20T05:36:38;13.93;;;3.07;;
16813;SDS011;8524;57.650;11.926;2023-12-20T05:39:05;16.40;;;3.37;;
16813;SDS011;8524;57.650;11.926;2023-12-20T05:41:32;12.20;;;2.73;;
16813;SDS011;8524;57.650;11.926;2023-12-20T05:43:59;14.63;;;3.20;;
16813;SDS011;8524;57.650;11.926;2023-12-20T05:46:26;10.43;;;2.60;;
16813;SDS011;8524;57.650;11.926;2023-12-20T05:48:54;13.37;;;3.00;;
16813;SDS011;8524;57.650;11.926;2023-12-20T05:51:21;9.07;;;2.47;;
16813;SDS011;8524;57.650;11.926;2023-12-20T05:53:48;13.20;;;2.47;;
16813;SDS011;8524;57.650;11.926;2023-12-20T05:56:15;11.10;;;2.77;;
16813;SDS011;8524;57.650;11.926;2023-12-20T05:58:42;8.60;;;2.17;;
16813;SDS011;8524;57.650;11.926;2023-12-20T06:01:09;8.17;;;2.20;;
16813;SDS011;8524;57.650;11.926;2023-12-20T06:03:37;11.97;;;2.50;;
16813;SDS011;8524;57.650;11.926;2023-12-20T06:06:08;10.20;;;2.80;;
16813;SDS011;8524;57.650;11.926;2023-12-20T06:08:36;8.80;;;2.13;;
16813;SDS011;8524;57.650;11.926;2023-12-20T06:11:03;7.53;;;2.70;;
16813;SDS011;8524;57.650;11.926;2023-12-20T06:13:30;4.17;;;1.70;;
16813;SDS011;8524;57.650;11.926;2023-12-20T06:15:57;4.30;;;1.50;;
16813;SDS011;8524;57.650;11.926;2023-12-20T06:18:24;3.83;;;1.47;;
16813;SDS011;8524;57.650;11.926;2023-12-20T06:20:50;5.17;;;1.60;;
16813;SDS011;8524;57.650;11.926;2023-12-20T06:23:19;5.17;;;1.63;;
16813;SDS011;8524;57.650;11.926;2023-12-20T06:25:45;8.50;;;1.87;;
16813;SDS011;8524;57.650;11.926;2023-12-20T06:28:12;10.67;;;2.00;;
16813;SDS011;8524;57.650;11.926;2023-12-20T06:30:40;11.23;;;2.57;;
16813;SDS011;8524;57.650;11.926;2023-12-20T06:33:07;11.07;;;2.73;;
16813;SDS011;8524;57.650;11.926;2023-12-20T06:35:35;7.73;;;2.37;;
16813;SDS011;8524;57.650;11.926;2023-12-20T06:38:01;10.87;;;2.27;;
16813;SDS011;8524;57.650;11.926;2023-12-20T06:40:30;9.37;;;2.23;;
16813;SDS011;8524;57.650;11.926;2023-12-20T06:42:57;7.90;;;2.10;;
16813;SDS011;8524;57.650;11.926;2023-12-20T06:45:24;8.80;;;2.50;;
16813;SDS011;8524;57.650;11.926;2023-12-20T06:47:51;10.53;;;2.27;;
16813;SDS011;8524;57.650;11.926;2023-12-20T06:50:19;11.90;;;2.80;;
16813;SDS011;8524;57.650;11.926;2023-12-20T06:52:46;9.50;;;2.60;;
16813;SDS011;8524;57.650;11.926;2023-12-20T06:55:13;7.43;;;2.10;;
16813;SDS011;8524;57.650;11.926;2023-12-20T06:57:41;9.33;;;2.37;;
16813;SDS011;8524;57.650;11.926;2023-12-20T07:00:10;8.50;;;2.23;;
16813;SDS011;8524;57.650;11.926;2023-12-20T07:02:39;9.43;;;2.17;;
16813;SDS011;8524;57.650;11.926;2023-12-20T07:05:06;12.40;;;3.00;;
16813;SDS011;8524;57.650;11.926;2023-12-20T07:07:33;9.37;;;2.23;;
16813;SDS011;8524;57.650;11.926;2023-12-20T07:10:00;7.68;;;2.30;;
16813;SDS011;8524;57.650;11.926;2023-12-20T07:12:27;8.17;;;2.33;;
16813;SDS011;8524;57.650;11.926;2023-12-20T07:14:56;11.30;;;2.20;;
16813;SDS011;8524;57.650;11.926;2023-12-20T07:17:22;5.60;;;2.30;;
16813;SDS011;8524;57.650;11.926;2023-12-20T07:19:49;10.53;;;1.93;;
16813;SDS011;8524;57.650;11.926;2023-12-20T07:22:16;7.80;;;2.03;;
16813;SDS011;8524;57.650;11.926;2023-12-20T07:24:43;7.77;;;2.07;;
16813;SDS011;8524;57.650;11.926;2023-12-20T07:27:11;6.07;;;1.77;;
16813;SDS011;8524;57.650;11.926;2023-12-20T07:29:37;10.40;;;2.60;;
16813;SDS011;8524;57.650;11.926;2023-12-20T07:32:06;11.63;;;2.50;;
16813;SDS011;8524;57.650;11.926;2023-12-20T07:34:33;8.97;;;2.37;;
16813;SDS011;8524;57.650;11.926;2023-12-20T07:37:00;9.63;;;2.43;;
16813;SDS011;8524;57.650;11.926;2023-12-20T07:39:27;12.10;;;2.23;;
16813;SDS011;8524;57.650;11.926;2023-12-20T07:41:54;10.77;;;2.20;;
16813;SDS011;8524;57.650;11.926;2023-12-20T07:44:21;10.13;;;2.23;;
16813;SDS011;8524;57.650;11.926;2023-12-20T07:46:48;9.13;;;2.67;;
16813;SDS011;8524;57.650;11.926;2023-12-20T07:49:16;8.43;;;2.47;;
16813;SDS011;8524;57.650;11.926;2023-12-20T07:51:43;9.80;;;2.53;;
16813;SDS011;8524;57.650;11.926;2023-12-20T07:54:10;11.57;;;3.08;;
16813;SDS011;8524;57.650;11.926;2023-12-20T07:56:37;12.30;;;2.70;;
16813;SDS011;8524;57.650;11.926;2023-12-20T07:59:05;12.13;;;3.30;;
16813;SDS011;8524;57.650;11.926;2023-12-20T08:01:32;9.10;;;2.40;;
16813;SDS011;8524;57.650;11.926;2023-12-20T08:03:58;13.00;;;2.60;;
16813;SDS011;8524;57.650;11.926;2023-12-20T08:06:27;14.03;;;3.13;;
16813;SDS011;8524;57.650;11.926;2023-12-20T08:08:54;11.17;;;2.33;;
16813;SDS011;8524;57.650;11.926;2023-12-20T08:11:20;9.63;;;2.90;;
16813;SDS011;8524;57.650;11.926;2023-12-20T08:13:47;9.07;;;2.37;;
16813;SDS011;8524;57.650;11.926;2023-12-20T08:16:14;16.27;;;3.10;;
16813;SDS011;8524;57.650;11.926;2023-12-20T08:18:42;9.30;;;2.33;;
16813;SDS011;8524;57.650;11.926;2023-12-20T08:21:09;10.57;;;3.03;;
16813;SDS011;8524;57.650;11.926;2023-12-20T08:23:38;16.13;;;2.93;;
16813;SDS011;8524;57.650;11.926;2023-12-20T08:26:05;13.67;;;2.97;;
16813;SDS011;8524;57.650;11.926;2023-12-20T08:28:32;12.60;;;2.70;;
16813;SDS011;8524;57.650;11.926;2023-12-20T08:30:59;11.70;;;2.67;;
16813;SDS011;8524;57.650;11.926;2023-12-20T08:33:26;9.00;;;2.30;;
16813;SDS011;8524;57.650;11.926;2023-12-20T08:35:53;14.80;;;2.90;;
16813;SDS011;8524;57.650;11.926;2023-12-20T08:38:20;12.03;;;2.83;;
16813;SDS011;8524;57.650;11.926;2023-12-20T08:40:48;11.32;;;3.30;;
16813;SDS011;8524;57.650;11.926;2023-12-20T08:43:15;13.43;;;3.33;;
16813;SDS011;8524;57.650;11.926;2023-12-20T08:45:42;9.90;;;2.60;;
16813;SDS011;8524;57.650;11.926;2023-12-20T08:48:09;10.30;;;2.33;;
16813;SDS011;8524;57.650;11.926;2023-12-20T08:50:36;12.27;;;2.83;;
16813;SDS011;8524;57.650;11.926;2023-12-20T08:53:03;10.83;;;3.07;;
16813;SDS011;8524;57.650;11.926;2023-12-20T08:55:30;17.90;;;3.80;;
16813;SDS011;8524;57.650;11.926;2023-12-20T08:57:58;11.67;;;3.00;;
16813;SDS011;8524;57.650;11.926;2023-12-20T09:00:25;14.57;;;3.40;;
16813;SDS011;8524;57.650;11.926;2023-12-20T09:02:52;11.53;;;3.27;;
16813;SDS011;8524;57.650;11.926;2023-12-20T09:05:20;12.77;;;3.27;;
16813;SDS011;8524;57.650;11.926;2023-12-20T09:07:47;16.20;;;3.50;;
16813;SDS011;8524;57.650;11.926;2023-12-20T09:10:14;13.63;;;4.13;;
16813;SDS011;8524;57.650;11.926;2023-12-20T09:12:41;11.13;;;3.30;;
16813;SDS011;8524;57.650;11.926;2023-12-20T09:15:09;11.23;;;2.90;;
16813;SDS011;8524;57.650;11.926;2023-12-20T09:17:36;11.60;;;3.43;;
16813;SDS011;8524;57.650;11.926;2023-12-20T09:20:03;12.00;;;3.17;;
16813;SDS011;8524;57.650;11.926;2023-12-20T09:22:32;17.47;;;3.70;;
16813;SDS011;8524;57.650;11.926;2023-12-20T09:24:59;16.38;;;4.13;;
16813;SDS011;8524;57.650;11.926;2023-12-20T09:27:26;13.07;;;3.60;;
16813;SDS011;8524;57.650;11.926;2023-12-20T09:29:53;16.80;;;3.90;;
16813;SDS011;8524;57.650;11.926;2023-12-20T09:32:22;13.60;;;4.00;;
16813;SDS011;8524;57.650;11.926;2023-12-20T09:34:48;15.57;;;3.47;;
16813;SDS011;8524;57.650;11.926;2023-12-20T09:37:15;11.37;;;3.60;;
16813;SDS011;8524;57.650;11.926;2023-12-20T09:39:42;16.27;;;3.20;;
16813;SDS011;8524;57.650;11.926;2023-12-20T09:42:10;13.73;;;3.37;;
16813;SDS011;8524;57.650;11.926;2023-12-20T09:44:42;10.23;;;3.33;;
16813;SDS011;8524;57.650;11.926;2023-12-20T09:47:09;17.17;;;3.90;;
16813;SDS011;8524;57.650;11.926;2023-12-20T09:49:38;19.70;;;3.93;;
16813;SDS011;8524;57.650;11.926;2023-12-20T09:52:06;11.10;;;3.40;;
16813;SDS011;8524;57.650;11.926;2023-12-20T09:54:35;15.63;;;3.70;;
16813;SDS011;8524;57.650;11.926;2023-12-20T09:57:02;13.33;;;3.77;;
16813;SDS011;8524;57.650;11.926;2023-12-20T09:59:30;15.07;;;3.70;;
16813;SDS011;8524;57.650;11.926;2023-12-20T10:01:57;18.97;;;4.23;;
16813;SDS011;8524;57.650;11.926;2023-12-20T10:04:28;13.90;;;3.80;;
16813;SDS011;8524;57.650;11.926;2023-12-20T10:07:02;16.53;;;4.33;;
16813;SDS011;8524;57.650;11.926;2023-12-20T10:09:31;17.20;;;3.97;;
16813;SDS011;8524;57.650;11.926;2023-12-20T10:11:58;16.63;;;4.70;;
16813;SDS011;8524;57.650;11.926;2023-12-20T10:14:25;13.83;;;3.80;;
16813;SDS011;8524;57.650;11.926;2023-12-20T10:16:52;15.53;;;3.43;;
16813;SDS011;8524;57.650;11.926;2023-12-20T10:19:20;14.53;;;3.43;;
16813;SDS011;8524;57.650;11.926;2023-12-20T10:21:47;14.90;;;4.00;;
16813;SDS011;8524;57.650;11.926;2023-12-20T10:24:17;12.43;;;3.70;;
16813;SDS011;8524;57.650;11.926;2023-12-20T10:26:44;12.13;;;3.40;;
16813;SDS011;8524;57.650;11.926;2023-12-20T10:29:11;14.67;;;3.57;;
16813;SDS011;8524;57.650;11.926;2023-12-20T10:31:38;13.47;;;3.93;;
16813;SDS011;8524;57.650;11.926;2023-12-20T10:34:05;15.23;;;3.70;;
16813;SDS011;8524;57.650;11.926;2023-12-20T10:36:32;13.23;;;4.20;;
16813;SDS011;8524;57.650;11.926;2023-12-20T10:39:01;11.97;;;4.40;;
16813;SDS011;8524;57.650;11.926;2023-12-20T10:41:32;11.27;;;3.20;;
16813;SDS011;8524;57.650;11.926;2023-12-20T10:44:01;10.33;;;4.00;;
16813;SDS011;8524;57.650;11.926;2023-12-20T10:46:30;9.33;;;3.43;;
16813;SDS011;8524;57.650;11.926;2023-12-20T10:48:57;11.17;;;4.07;;
16813;SDS011;8524;57.650;11.926;2023-12-20T10:51:25;12.07;;;4.13;;
16813;SDS011;8524;57.650;11.926;2023-12-20T10:53:52;12.47;;;4.13;;
16813;SDS011;8524;57.650;11.926;2023-12-20T10:56:20;14.27;;;4.13;;
16813;SDS011;8524;57.650;11.926;2023-12-20T10:58:50;9.90;;;3.90;;
16813;SDS011;8524;57.650;11.926;2023-12-20T11:01:17;11.57;;;3.50;;
16813;SDS011;8524;57.650;11.926;2023-12-20T11:03:47;14.67;;;4.90;;
16813;SDS011;8524;57.650;11.926;2023-12-20T11:06:19;10.90;;;3.90;;
16813;SDS011;8524;57.650;11.926;2023-12-20T11:08:55;11.07;;;3.60;;
16813;SDS011;8524;57.650;11.926;2023-12-20T11:11:35;14.13;;;5.30;;
16813;SDS011;8524;57.650;11.926;2023-12-20T11:14:12;11.00;;;4.00;;
16813;SDS011;8524;57.650;11.926;2023-12-20T11:16:45;16.97;;;4.70;;
16813;SDS011;8524;57.650;11.926;2023-12-20T11:19:12;13.63;;;4.57;;
16813;SDS011;8524;57.650;11.926;2023-12-20T11:21:40;16.80;;;4.80;;
16813;SDS011;8524;57.650;11.926;2023-12-20T11:24:07;16.40;;;5.00;;
16813;SDS011;8524;57.650;11.926;2023-12-20T11:26:35;11.43;;;4.73;;
16813;SDS011;8524;57.650;11.926;2023-12-20T11:32:02;13.77;;;5.30;;
16813;SDS011;8524;57.650;11.926;2023-12-20T11:34:31;14.37;;;5.27;;
16813;SDS011;8524;57.650;11.926;2023-12-20T11:36:59;17.77;;;6.13;;
16813;SDS011;8524;57.650;11.926;2023-12-20T11:39:26;15.83;;;5.00;;
16813;SDS011;8524;57.650;11.926;2023-12-20T11:41:55;14.17;;;4.97;;
16813;SDS011;8524;57.650;11.926;2023-12-20T11:44:25;16.87;;;5.37;;
16813;SDS011;8524;57.650;11.926;2023-12-20T11:46:53;14.43;;;6.20;;
16813;SDS011;8524;57.650;11.926;2023-12-20T11:49:24;14.77;;;5.43;;
16813;SDS011;8524;57.650;11.926;2023-12-20T11:51:51;18.53;;;5.60;;
16813;SDS011;8524;57.650;11.926;2023-12-20T11:54:18;13.70;;;5.77;;
16813;SDS011;8524;57.650;11.926;2023-12-20T11:56:45;14.43;;;5.63;;
16813;SDS011;8524;57.650;11.926;2023-12-20T11:59:13;14.75;;;6.45;;
16813;SDS011;8524;57.650;11.926;2023-12-20T12:01:47;14.37;;;6.23;;
16813;SDS011;8524;57.650;11.926;2023-12-20T12:04:16;16.43;;;5.60;;
16813;SDS011;8524;57.650;11.926;2023-12-20T12:06:43;10.57;;;5.30;;
16813;SDS011;8524;57.650;11.926;2023-12-20T12:09:10;14.20;;;5.90;;
16813;SDS011;8524;57.650;11.926;2023-12-20T12:11:37;13.13;;;5.27;;
16813;SDS011;8524;57.650;11.926;2023-12-20T12:14:04;14.43;;;6.00;;
16813;SDS011;8524;57.650;11.926;2023-12-20T12:16:32;13.43;;;5.77;;
16813;SDS011;8524;57.650;11.926;2023-12-20T12:18:59;16.10;;;6.10;;
16813;SDS011;8524;57.650;11.926;2023-12-20T12:21:28;13.50;;;6.00;;
16813;SDS011;8524;57.650;11.926;2023-12-20T12:24:06;11.50;;;4.87;;
16813;SDS011;8524;57.650;11.926;2023-12-20T12:26:33;12.03;;;5.13;;
16813;SDS011;8524;57.650;11.926;2023-12-20T12:29:00;13.93;;;5.00;;
16813;SDS011;8524;57.650;11.926;2023-12-20T12:31:27;10.27;;;4.53;;
16813;SDS011;8524;57.650;11.926;2023-12-20T12:33:55;12.17;;;4.57;;
16813;SDS011;8524;57.650;11.926;2023-12-20T12:36:22;10.03;;;4.83;;
16813;SDS011;8524;57.650;11.926;2023-12-20T12:38:50;9.90;;;4.33;;
16813;SDS011;8524;57.650;11.926;2023-12-20T12:41:17;11.93;;;4.57;;
16813;SDS011;8524;57.650;11.926;2023-12-20T12:43:44;8.43;;;4.20;;
16813;SDS011;8524;57.650;11.926;2023-12-20T12:46:11;8.90;;;3.80;;
16813;SDS011;8524;57.650;11.926;2023-12-20T12:48:38;7.63;;;3.60;;
16813;SDS011;8524;57.650;11.926;2023-12-20T12:51:05;8.07;;;4.17;;
16813;SDS011;8524;57.650;11.926;2023-12-20T12:53:33;10.65;;;4.43;;
16813;SDS011;8524;57.650;11.926;2023-12-20T12:56:01;11.87;;;4.40;;
16813;SDS011;8524;57.650;11.926;2023-12-20T12:58:28;7.07;;;3.67;;
16813;SDS011;8524;57.650;11.926;2023-12-20T13:00:55;8.67;;;4.30;;
16813;SDS011;8524;57.650;11.926;2023-12-20T13:03:22;10.27;;;3.90;;
16813;SDS011;8524;57.650;11.926;2023-12-20T13:05:49;9.30;;;3.63;;
16813;SDS011;8524;57.650;11.926;2023-12-20T13:08:16;6.67;;;3.53;;
16813;SDS011;8524;57.650;11.926;2023-12-20T13:10:43;11.70;;;4.40;;
16813;SDS011;8524;57.650;11.926;2023-12-20T13:13:11;8.93;;;3.40;;
16813;SDS011;8524;57.650;11.926;2023-12-20T13:15:38;10.33;;;3.87;;
16813;SDS011;8524;57.650;11.926;2023-12-20T13:18:05;8.10;;;4.00;;
16813;SDS011;8524;57.650;11.926;2023-12-20T13:20:32;7.87;;;3.90;;
16813;SDS011;8524;57.650;11.926;2023-12-20T13:23:00;9.03;;;3.97;;
16813;SDS011;8524;57.650;11.926;2023-12-20T13:25:28;10.07;;;4.30;;
16813;SDS011;8524;57.650;11.926;2023-12-20T13:27:56;7.60;;;3.73;;
16813;SDS011;8524;57.650;11.926;2023-12-20T13:30:25;6.67;;;3.80;;
16813;SDS011;8524;57.650;11.926;2023-12-20T13:32:52;6.53;;;4.10;;
16813;SDS011;8524;57.650;11.926;2023-12-20T13:42:21;7.77;;;4.20;;
16813;SDS011;8524;57.650;11.926;2023-12-20T13:44:48;8.53;;;4.33;;
16813;SDS011;8524;57.650;11.926;2023-12-20T13:47:16;8.37;;;4.00;;
16813;SDS011;8524;57.650;11.926;2023-12-20T13:49:44;8.60;;;4.37;;
16813;SDS011;8524;57.650;11.926;2023-12-20T13:52:11;9.23;;;4.63;;
16813;SDS011;8524;57.650;11.926;2023-12-20T13:54:38;6.13;;;4.07;;
16813;SDS011;8524;57.650;11.926;2023-12-20T13:57:05;8.37;;;4.20;;
16813;SDS011;8524;57.650;11.926;2023-12-20T13:59:32;9.00;;;4.23;;
16813;SDS011;8524;57.650;11.926;2023-12-20T14:02:00;8.80;;;4.10;;
16813;SDS011;8524;57.650;11.926;2023-12-20T14:04:30;10.43;;;4.07;;
16813;SDS011;8524;57.650;11.926;2023-12-20T14:06:57;6.63;;;3.90;;
16813;SDS011;8524;57.650;11.926;2023-12-20T14:09:23;7.97;;;4.17;;
16813;SDS011;8524;57.650;11.926;2023-12-20T14:11:50;7.37;;;3.77;;
16813;SDS011;8524;57.650;11.926;2023-12-20T14:14:19;7.13;;;3.83;;
16813;SDS011;8524;57.650;11.926;2023-12-20T14:16:46;7.47;;;4.60;;
16813;SDS011;8524;57.650;11.926;2023-12-20T14:19:13;7.70;;;3.87;;
16813;SDS011;8524;57.650;11.926;2023-12-20T14:21:42;6.70;;;4.03;;
16813;SDS011;8524;57.650;11.926;2023-12-20T14:24:10;7.87;;;3.83;;
16813;SDS011;8524;57.650;11.926;2023-12-20T14:26:39;9.03;;;4.00;;
16813;SDS011;8524;57.650;11.926;2023-12-20T14:29:06;7.93;;;3.93;;
16813;SDS011;8524;57.650;11.926;2023-12-20T14:31:34;8.20;;;4.13;;
16813;SDS011;8524;57.650;11.926;2023-12-20T14:34:02;6.00;;;4.27;;
16813;SDS011;8524;57.650;11.926;2023-12-20T14:36:30;9.23;;;4.03;;
16813;SDS011;8524;57.650;11.926;2023-12-20T14:38:58;6.27;;;3.80;;
16813;SDS011;8524;57.650;11.926;2023-12-20T14:41:26;9.77;;;4.47;;
16813;SDS011;8524;57.650;11.926;2023-12-20T14:43:53;8.43;;;4.40;;
16813;SDS011;8524;57.650;11.926;2023-12-20T14:46:20;7.37;;;4.37;;
16813;SDS011;8524;57.650;11.926;2023-12-20T14:48:47;6.97;;;3.63;;